Time;durP1;ratioP1;P1;durP2;ratioP2;P2;SDS_P1;SDS_P2;PMS_P1;PMS_P2;Temp;Humidity;BMP_temperature;BMP_pressure;BME280_temperature;BME280_humidity;BME280_pressure;Samples;Min_cycle;Max_cycle;Signal;HPM_P1;HPM_P2
2021/12/18 00:04:09;;;;;;;9.50;5.40;;;22.10;60.00;;;;;;214451;1312;22554;-54
2021/12/18 00:09:19;;;;;;;9.50;4.70;;;22.10;59.70;;;;;;214435;1309;22710;-53
2021/12/18 00:14:33;;;;;;;8.80;4.70;;;22.00;60.00;;;;;;214107;1312;25422;-55
2021/12/18 00:19:54;;;;;;;7.80;4.60;;;22.00;59.40;;;;;;214148;1313;22679;-51
2021/12/18 00:24:58;;;;;;;8.70;4.30;;;21.90;59.70;;;;;;214327;1312;24248;-53
2021/12/18 00:30:10;;;;;;;7.30;4.40;;;21.90;59.80;;;;;;214306;1310;24416;-52
2021/12/18 00:35:14;;;;;;;8.20;4.70;;;21.90;60.00;;;;;;214278;1309;25652;-53
2021/12/18 00:40:27;;;;;;;8.50;4.80;;;21.80;59.60;;;;;;214420;1312;24253;-51
2021/12/18 00:45:31;;;;;;;7.40;3.90;;;21.80;59.70;;;;;;214533;1312;22571;-53
2021/12/18 00:51:04;;;;;;;10.50;4.60;;;21.80;59.70;;;;;;214131;1311;23129;-52
2021/12/18 00:56:07;;;;;;;8.00;4.20;;;21.90;59.40;;;;;;214460;1312;24272;-56
2021/12/18 01:01:11;;;;;;;9.10;3.90;;;21.90;59.30;;;;;;214329;1312;25599;-50
2021/12/18 01:06:20;;;;;;;8.70;4.60;;;21.90;59.10;;;;;;214479;1312;152881;-52
2021/12/18 01:11:41;;;;;;;6.20;3.40;;;21.90;59.20;;;;;;214205;1309;22558;-54
2021/12/18 01:27:34;;;;;;;7.80;4.00;;;21.80;59.50;;;;;;214061;1309;23991;-50
2021/12/18 01:32:38;;;;;;;6.80;3.70;;;21.80;59.30;;;;;;214175;1312;22590;-51
2021/12/18 01:37:42;;;;;;;5.70;3.50;;;21.80;59.00;;;;;;214255;1312;22589;-52
2021/12/18 01:53:43;;;;;;;5.50;3.20;;;21.70;58.90;;;;;;214292;1309;22596;-50
2021/12/18 01:58:47;;;;;;;7.30;3.60;;;21.70;58.90;;;;;;214435;1312;25547;-51
2021/12/18 02:03:50;;;;;;;5.50;3.20;;;21.70;59.00;;;;;;214578;1313;26669;-54
2021/12/18 02:08:55;;;;;;;8.20;3.50;;;21.70;58.90;;;;;;214591;1309;22555;-52
2021/12/18 02:19:46;;;;;;;6.30;3.40;;;21.70;58.70;;;;;;214165;1309;22558;-53
2021/12/18 02:24:50;;;;;;;6.40;3.30;;;21.70;58.60;;;;;;214229;1309;22730;-52
2021/12/18 02:29:54;;;;;;;6.60;3.30;;;21.70;58.50;;;;;;214149;1309;22685;-52
2021/12/18 02:35:03;;;;;;;5.60;3.30;;;21.70;58.50;;;;;;214339;1309;22574;-53
2021/12/18 02:45:12;;;;;;;6.10;3.00;;;21.70;58.40;;;;;;214244;1309;22587;-52
2021/12/18 02:50:16;;;;;;;5.50;3.30;;;21.70;58.40;;;;;;214152;1309;22619;-54
2021/12/18 02:55:20;;;;;;;7.20;3.40;;;21.70;58.40;;;;;;214321;1309;25253;-54
2021/12/18 03:00:26;;;;;;;6.00;3.30;;;21.60;58.30;;;;;;214152;1309;24764;-54
2021/12/18 03:05:37;;;;;;;5.10;2.70;;;21.60;58.30;;;;;;214246;1309;25374;-51
2021/12/18 03:26:48;;;;;;;4.60;2.70;;;21.60;58.10;;;;;;214292;1309;24349;-54
2021/12/18 03:31:51;;;;;;;5.00;3.00;;;21.60;58.10;;;;;;214273;1312;24261;-53
2021/12/18 03:36:55;;;;;;;5.60;3.30;;;21.60;58.10;;;;;;213953;1312;24248;-52
2021/12/18 03:41:59;;;;;;;6.30;3.10;;;21.60;58.00;;;;;;214167;1309;22580;-53
2021/12/18 03:47:04;;;;;;;6.10;3.00;;;21.60;57.80;;;;;;214268;1312;22677;-51
2021/12/18 03:52:07;;;;;;;5.30;3.20;;;21.60;58.20;;;;;;214360;1309;22554;-60
2021/12/18 03:57:11;;;;;;;5.20;3.10;;;21.60;57.80;;;;;;214129;1309;25591;-51
2021/12/18 04:02:14;;;;;;;4.70;2.60;;;21.60;57.90;;;;;;214335;1309;22557;-54
2021/12/18 04:07:19;;;;;;;4.20;2.50;;;21.60;57.80;;;;;;214184;1309;22574;-51
2021/12/18 04:12:22;;;;;;;4.80;2.80;;;21.50;57.60;;;;;;214310;1309;22590;-54
2021/12/18 04:17:26;;;;;;;6.10;3.10;;;21.50;57.70;;;;;;214380;1309;22579;-51
2021/12/18 04:22:30;;;;;;;5.90;2.40;;;21.50;57.60;;;;;;214153;1309;25339;-52
2021/12/18 04:27:33;;;;;;;5.10;2.60;;;21.50;57.70;;;;;;214434;1309;23034;-52
2021/12/18 04:32:37;;;;;;;3.90;2.20;;;21.60;57.60;;;;;;214287;1309;24248;-51
2021/12/18 04:37:40;;;;;;;4.80;2.60;;;21.60;57.40;;;;;;214292;1309;25259;-53
2021/12/18 04:42:44;;;;;;;4.20;2.90;;;21.60;57.40;;;;;;214322;1309;24260;-55
2021/12/18 04:47:48;;;;;;;6.00;2.90;;;21.60;57.40;;;;;;214202;1314;22577;-50
2021/12/18 04:52:53;;;;;;;4.40;2.70;;;21.60;57.50;;;;;;214313;1310;22584;-54
2021/12/18 04:57:56;;;;;;;4.60;2.70;;;21.60;57.30;;;;;;214417;1314;22588;-51
2021/12/18 05:03:04;;;;;;;4.00;2.50;;;21.60;57.20;;;;;;214327;1312;22555;-54
2021/12/18 05:08:08;;;;;;;5.10;2.10;;;21.60;57.30;;;;;;214347;1309;25355;-52
2021/12/18 05:13:12;;;;;;;6.60;2.50;;;21.60;57.30;;;;;;214342;1309;22555;-56
2021/12/18 05:18:16;;;;;;;4.20;2.90;;;21.50;57.20;;;;;;214313;1309;22573;-51
2021/12/18 05:23:20;;;;;;;4.60;2.50;;;21.50;57.20;;;;;;214169;1313;22573;-53
2021/12/18 05:28:23;;;;;;;4.80;2.40;;;21.50;57.30;;;;;;214389;1313;23110;-55
2021/12/18 05:33:27;;;;;;;4.20;2.30;;;21.50;57.10;;;;;;214300;1309;22579;-53
2021/12/18 05:38:30;;;;;;;5.00;2.50;;;21.50;57.20;;;;;;214277;1312;22567;-53
2021/12/18 05:43:34;;;;;;;4.60;2.80;;;21.50;57.10;;;;;;214485;1312;22639;-52
2021/12/18 05:48:38;;;;;;;4.80;2.30;;;21.50;57.00;;;;;;214242;1309;24244;-54
2021/12/18 05:53:41;;;;;;;3.30;1.90;;;21.50;57.00;;;;;;214458;1309;24241;-55
2021/12/18 05:58:45;;;;;;;3.40;2.30;;;21.50;56.90;;;;;;214432;1310;25384;-53
2021/12/18 06:03:49;;;;;;;5.00;2.50;;;21.50;56.70;;;;;;214193;1309;22593;-52
2021/12/18 06:08:53;;;;;;;6.30;2.60;;;21.50;56.80;;;;;;214299;1312;22590;-54
2021/12/18 06:13:56;;;;;;;3.60;2.00;;;21.50;56.70;;;;;;214367;1309;23107;-51
2021/12/18 06:19:01;;;;;;;3.80;2.30;;;21.50;56.60;;;;;;214418;1309;22574;-52
2021/12/18 06:24:04;;;;;;;4.10;2.30;;;21.50;56.70;;;;;;214304;1309;25407;-52
2021/12/18 06:29:08;;;;;;;4.50;2.00;;;21.50;56.70;;;;;;214265;1309;25433;-50
2021/12/18 06:34:12;;;;;;;4.10;1.80;;;21.50;56.70;;;;;;214203;1309;24393;-51
2021/12/18 06:39:16;;;;;;;3.20;1.90;;;21.40;56.60;;;;;;214164;1309;22575;-55
2021/12/18 06:44:20;;;;;;;5.00;2.10;;;21.40;56.50;;;;;;214263;1309;22713;-52
2021/12/18 06:49:23;;;;;;;4.10;2.30;;;21.40;56.70;;;;;;214363;1309;22593;-50
2021/12/18 06:54:27;;;;;;;4.50;2.30;;;21.40;56.70;;;;;;214071;1312;24316;-52
2021/12/18 06:59:31;;;;;;;4.10;2.10;;;21.40;56.70;;;;;;214209;1315;22644;-53
2021/12/18 07:04:37;;;;;;;3.30;1.90;;;21.40;56.60;;;;;;214341;1309;22584;-53
2021/12/18 07:09:41;;;;;;;2.90;2.00;;;21.50;56.50;;;;;;214436;1310;22568;-52
2021/12/18 07:14:44;;;;;;;3.40;2.10;;;21.40;56.50;;;;;;214029;1312;24396;-52
2021/12/18 07:19:49;;;;;;;3.50;2.00;;;21.50;56.50;;;;;;214374;1309;22570;-55
2021/12/18 07:24:52;;;;;;;4.00;1.70;;;21.50;56.50;;;;;;214128;1310;24369;-53
2021/12/18 07:30:04;;;;;;;4.30;2.00;;;21.50;56.40;;;;;;214399;1314;25538;-52
2021/12/18 07:35:17;;;;;;;5.10;2.50;;;21.50;56.50;;;;;;214286;1309;22628;-51
2021/12/18 07:40:20;;;;;;;3.50;2.00;;;21.50;56.50;;;;;;214422;1309;25383;-53
2021/12/18 07:45:24;;;;;;;3.60;2.00;;;21.50;57.30;;;;;;214364;1312;24832;-55
2021/12/18 07:50:28;;;;;;;2.70;1.50;;;21.40;56.70;;;;;;214277;1314;23002;-57
2021/12/18 07:55:34;;;;;;;3.40;2.00;;;21.40;57.10;;;;;;214031;1309;22603;-53
2021/12/18 08:00:37;;;;;;;4.10;2.00;;;21.40;56.80;;;;;;214035;1309;22597;-54
2021/12/18 08:05:41;;;;;;;5.90;2.10;;;21.40;56.80;;;;;;213775;1311;22593;-54
2021/12/18 08:10:49;;;;;;;4.70;2.00;;;21.50;56.60;;;;;;213791;1309;22723;-54
2021/12/18 08:15:53;;;;;;;3.60;1.90;;;21.50;56.50;;;;;;213981;1309;22587;-54
2021/12/18 08:20:57;;;;;;;3.50;1.80;;;21.50;56.50;;;;;;213590;1312;23297;-51
2021/12/18 08:26:00;;;;;;;4.10;2.10;;;21.50;56.50;;;;;;213962;1309;22730;-54
2021/12/18 08:31:04;;;;;;;3.40;1.70;;;21.50;56.40;;;;;;213905;1308;24302;-51
2021/12/18 08:36:09;;;;;;;7.00;2.40;;;21.50;56.30;;;;;;214012;1309;22588;-53
2021/12/18 08:41:20;;;;;;;3.70;1.70;;;21.50;56.20;;;;;;213921;1310;22568;-54
2021/12/18 08:46:25;;;;;;;4.30;2.00;;;21.50;56.00;;;;;;213810;1309;25422;-55
2021/12/18 08:51:32;;;;;;;4.20;1.60;;;21.50;56.50;;;;;;213483;1312;22818;-51
2021/12/18 08:56:37;;;;;;;4.80;2.20;;;21.50;56.20;;;;;;213965;1312;24277;-52
2021/12/18 09:01:43;;;;;;;3.90;2.10;;;21.50;56.20;;;;;;213922;1312;22566;-51
2021/12/18 09:06:50;;;;;;;3.10;1.70;;;21.50;56.00;;;;;;213684;1312;224036;-54
2021/12/18 09:11:54;;;;;;;2.70;1.60;;;21.50;56.00;;;;;;214106;1309;25444;-54
2021/12/18 09:17:00;;;;;;;4.40;1.50;;;21.40;56.00;;;;;;213894;1309;22577;-55
2021/12/18 09:22:06;;;;;;;3.50;1.80;;;21.50;56.10;;;;;;214073;1311;25515;-52
2021/12/18 09:27:10;;;;;;;3.00;1.70;;;21.50;55.80;;;;;;214022;1313;24248;-54
2021/12/18 09:32:14;;;;;;;3.60;2.10;;;21.50;56.00;;;;;;214036;1310;24340;-56
2021/12/18 09:37:25;;;;;;;3.60;2.40;;;21.50;56.40;;;;;;214048;1312;22599;-51
2021/12/18 09:42:32;;;;;;;5.30;2.20;;;21.60;56.50;;;;;;213892;1312;22644;-52
2021/12/18 09:47:37;;;;;;;6.50;2.70;;;21.60;58.70;;;;;;213884;1313;24313;-55
2021/12/18 09:52:41;;;;;;;9.90;2.30;;;21.70;58.60;;;;;;214311;1315;22590;-55
2021/12/18 09:57:46;;;;;;;6.50;2.30;;;21.70;58.50;;;;;;214223;1315;24255;-55
2021/12/18 10:02:51;;;;;;;4.50;2.40;;;21.60;58.40;;;;;;214173;1318;22637;-54
2021/12/18 10:08:09;;;;;;;9.70;2.30;;;21.60;59.10;;;;;;214108;1315;22568;-55
2021/12/18 10:13:12;;;;;;;6.10;2.40;;;21.50;58.70;;;;;;214030;1312;25396;-53
2021/12/18 10:18:16;;;;;;;9.30;2.60;;;21.50;59.20;;;;;;214053;1314;24279;-53
2021/12/18 10:23:26;;;;;;;5.80;2.60;;;21.60;58.90;;;;;;214090;1312;22703;-51
2021/12/18 10:28:45;;;;;;;9.10;2.20;;;21.60;58.50;;;;;;214017;1315;22591;-55
2021/12/18 10:33:49;;;;;;;5.00;2.40;;;21.60;58.00;;;;;;214190;1315;25545;-55
2021/12/18 10:38:55;;;;;;;9.90;2.50;;;21.50;58.00;;;;;;214238;1315;22580;-54
2021/12/18 10:44:08;;;;;;;9.90;2.40;;;21.60;57.50;;;;;;214268;1315;22600;-56
2021/12/18 10:49:22;;;;;;;9.10;2.40;;;21.70;57.10;;;;;;214314;1315;24287;-54
2021/12/18 10:54:36;;;;;;;8.20;2.60;;;21.60;56.90;;;;;;214225;1315;22609;-58
2021/12/18 10:59:51;;;;;;;6.50;2.40;;;21.60;56.20;;;;;;214321;1315;24274;-52
2021/12/18 11:05:16;;;;;;;4.90;2.60;;;21.60;55.90;;;;;;214058;1312;22581;-55
2021/12/18 11:10:42;;;;;;;8.10;2.20;;;21.50;55.80;;;;;;214380;1315;22735;-53
2021/12/18 11:15:50;;;;;;;6.00;2.20;;;21.50;55.20;;;;;;214324;1314;22598;-51
2021/12/18 11:20:53;;;;;;;8.40;2.40;;;21.50;55.10;;;;;;214106;1316;24052;-54
2021/12/18 11:26:09;;;;;;;5.50;2.60;;;21.50;54.90;;;;;;214071;1318;22760;-54
2021/12/18 11:31:19;;;;;;;6.10;2.70;;;21.60;54.50;;;;;;214331;1315;24696;-55
2021/12/18 11:36:30;;;;;;;5.10;2.50;;;21.70;53.80;;;;;;214428;1310;23043;-55
2021/12/18 11:41:35;;;;;;;3.80;2.30;;;21.70;53.40;;;;;;214376;1313;23017;-57
2021/12/18 11:46:38;;;;;;;3.40;2.10;;;21.70;53.10;;;;;;214156;1315;25668;-53
2021/12/18 11:52:00;;;;;;;4.90;2.40;;;21.70;53.00;;;;;;214148;1312;22587;-54
2021/12/18 11:57:04;;;;;;;4.70;2.40;;;21.70;53.00;;;;;;214076;1313;22560;-54
2021/12/18 12:02:10;;;;;;;4.90;2.70;;;21.60;52.90;;;;;;214219;1315;22558;-53
2021/12/18 12:07:21;;;;;;;3.80;2.40;;;21.50;52.80;;;;;;214120;1313;26523;-56
2021/12/18 12:12:50;;;;;;;3.80;2.40;;;21.50;53.40;;;;;;213963;1315;24506;-53
2021/12/18 12:18:07;;;;;;;4.20;3.20;;;21.60;52.60;;;;;;213945;1316;24253;-51
2021/12/18 12:23:15;;;;;;;4.10;2.30;;;21.50;52.40;;;;;;214147;1312;22671;-54
2021/12/18 12:28:26;;;;;;;4.10;2.60;;;21.50;52.30;;;;;;214214;1312;25358;-52
2021/12/18 12:33:35;;;;;;;3.70;2.20;;;21.60;52.10;;;;;;214493;1316;23869;-54
2021/12/18 12:38:53;;;;;;;3.60;2.40;;;21.60;52.00;;;;;;214248;1316;22562;-52
2021/12/18 12:44:04;;;;;;;3.30;2.00;;;21.60;51.50;;;;;;214225;1310;25351;-55
2021/12/18 12:49:16;;;;;;;4.20;2.30;;;21.70;51.30;;;;;;214374;1313;22583;-55
2021/12/18 12:54:38;;;;;;;3.70;2.30;;;21.60;51.20;;;;;;213795;1318;24445;-55
2021/12/18 12:59:53;;;;;;;3.80;2.10;;;21.60;51.20;;;;;;214267;1313;22577;-54
2021/12/18 13:05:12;;;;;;;3.50;2.20;;;21.60;51.10;;;;;;214003;1312;24259;-56
2021/12/18 13:10:26;;;;;;;3.40;2.20;;;21.50;51.20;;;;;;213976;1312;22672;-55
2021/12/18 13:15:55;;;;;;;3.30;1.90;;;21.50;51.10;;;;;;214411;1312;22615;-51
2021/12/18 13:21:04;;;;;;;4.50;2.40;;;21.50;51.10;;;;;;214460;1310;25669;-53
2021/12/18 13:26:30;;;;;;;3.70;2.50;;;21.50;50.80;;;;;;214304;1309;23059;-54
2021/12/18 13:31:43;;;;;;;4.20;1.90;;;21.60;50.70;;;;;;214423;1309;25271;-52
2021/12/18 13:37:01;;;;;;;3.70;2.10;;;21.60;50.50;;;;;;214189;1309;22799;-55
2021/12/18 13:42:11;;;;;;;3.00;1.90;;;21.60;50.40;;;;;;214367;1313;22577;-55
2021/12/18 13:47:32;;;;;;;3.10;2.10;;;21.50;50.40;;;;;;214286;1312;25262;-54
2021/12/18 13:52:41;;;;;;;3.20;2.00;;;21.60;50.30;;;;;;214371;1312;25356;-54
2021/12/18 13:58:07;;;;;;;2.70;1.90;;;21.50;50.50;;;;;;214259;1315;22575;-51
2021/12/18 14:03:30;;;;;;;3.60;2.10;;;21.50;50.40;;;;;;214528;1309;24311;-54
2021/12/18 14:08:36;;;;;;;3.90;2.10;;;21.50;50.20;;;;;;214310;1314;23029;-57
2021/12/18 14:14:04;;;;;;;2.80;2.00;;;21.40;50.20;;;;;;214486;1309;22537;-52
2021/12/18 14:19:11;;;;;;;3.50;2.00;;;21.40;50.20;;;;;;213606;1312;22590;-53
2021/12/18 14:24:16;;;;;;;3.80;2.20;;;21.50;50.00;;;;;;214095;1317;22609;-55
2021/12/18 14:29:20;;;;;;;2.80;1.90;;;21.50;50.00;;;;;;214410;1313;22577;-52
2021/12/18 14:34:35;;;;;;;3.50;2.30;;;21.50;49.70;;;;;;214360;1309;24291;-54
2021/12/18 14:39:43;;;;;;;4.10;2.40;;;21.50;49.60;;;;;;214349;1309;25516;-53
2021/12/18 14:44:55;;;;;;;3.30;2.00;;;21.50;49.60;;;;;;214137;1314;25361;-54
2021/12/18 14:50:11;;;;;;;3.00;2.00;;;21.50;50.20;;;;;;214159;1312;24315;-55
2021/12/18 14:55:19;;;;;;;3.50;2.30;;;21.40;50.00;;;;;;214243;1313;22566;-51
2021/12/18 15:00:41;;;;;;;3.30;2.20;;;21.40;49.60;;;;;;214172;1316;26729;-53
2021/12/18 15:06:01;;;;;;;2.80;1.90;;;21.40;49.60;;;;;;214125;1312;22574;-57
2021/12/18 15:11:21;;;;;;;2.90;2.20;;;21.40;49.60;;;;;;214115;1312;24309;-56
2021/12/18 15:16:28;;;;;;;3.30;2.40;;;21.40;49.50;;;;;;214221;1309;24448;-57
2021/12/18 15:21:39;;;;;;;2.90;2.30;;;21.40;49.40;;;;;;214248;1312;22565;-55
2021/12/18 15:26:44;;;;;;;6.50;2.70;;;21.40;48.80;;;;;;214171;1312;22573;-57
2021/12/18 15:31:49;;;;;;;4.80;2.80;;;21.20;48.30;;;;;;214145;1312;25258;-58
2021/12/18 15:37:00;;;;;;;5.60;2.60;;;21.10;49.00;;;;;;214185;1309;22579;-56
2021/12/18 15:42:05;;;;;;;6.10;2.70;;;21.20;49.40;;;;;;214143;1312;22625;-55
2021/12/18 15:47:09;;;;;;;8.10;2.80;;;21.30;50.20;;;;;;214348;1312;24413;-57
2021/12/18 15:52:13;;;;;;;7.30;2.90;;;21.30;51.60;;;;;;214288;1312;22581;-53
2021/12/18 15:57:17;;;;;;;6.90;3.30;;;21.30;50.60;;;;;;214316;1312;22596;-59
2021/12/18 16:02:24;;;;;;;7.50;2.70;;;21.30;50.70;;;;;;214060;1312;22627;-58
2021/12/18 16:07:28;;;;;;;7.80;2.50;;;21.20;50.60;;;;;;214316;1312;22580;-57
2021/12/18 16:12:34;;;;;;;5.30;2.40;;;21.30;50.70;;;;;;213893;1312;24273;-57
2021/12/18 16:17:40;;;;;;;7.30;2.80;;;21.20;51.20;;;;;;213928;1312;22661;-56
2021/12/18 16:22:44;;;;;;;7.10;2.30;;;21.20;51.20;;;;;;214047;1312;22729;-53
2021/12/18 16:27:48;;;;;;;11.10;3.10;;;21.30;51.30;;;;;;213768;1312;22601;-55
2021/12/18 16:32:52;;;;;;;6.60;2.70;;;21.40;52.20;;;;;;214116;1312;23962;-54
2021/12/18 16:38:25;;;;;;;8.10;2.70;;;21.40;53.60;;;;;;214237;1309;22593;-58
2021/12/18 16:43:30;;;;;;;4.70;2.70;;;21.50;54.70;;;;;;213912;1312;25301;-52
2021/12/18 16:48:33;;;;;;;7.20;2.90;;;21.50;54.20;;;;;;214282;1312;22619;-54
2021/12/18 16:53:37;;;;;;;9.40;3.50;;;21.40;53.90;;;;;;214236;1310;22704;-53
2021/12/18 16:58:41;;;;;;;7.50;2.80;;;21.40;54.60;;;;;;214201;1312;22604;-51
2021/12/18 17:03:47;;;;;;;8.50;3.20;;;21.40;54.60;;;;;;214020;1312;159207;-50
2021/12/18 17:08:57;;;;;;;7.60;3.00;;;21.40;54.50;;;;;;213509;1312;24350;-52
2021/12/18 17:14:13;;;;;;;10.80;3.30;;;21.40;54.40;;;;;;214119;1315;22562;-50
2021/12/18 17:19:18;;;;;;;5.10;3.10;;;21.30;54.50;;;;;;214136;1312;23018;-55
2021/12/18 17:24:24;;;;;;;6.00;2.90;;;21.40;54.60;;;;;;213390;1312;25617;-54
2021/12/18 17:29:27;;;;;;;10.00;3.00;;;21.40;54.60;;;;;;214177;1312;24279;-51
2021/12/18 17:34:45;;;;;;;7.10;2.60;;;21.40;54.80;;;;;;214212;1309;22520;-52
2021/12/18 17:40:02;;;;;;;11.50;3.00;;;21.40;54.90;;;;;;213980;1309;25728;-50
2021/12/18 17:45:38;;;;;;;7.70;2.80;;;21.50;54.50;;;;;;214269;1313;24248;-56
2021/12/18 17:50:50;;;;;;;8.40;3.10;;;21.80;54.10;;;;;;214124;1312;26528;-53
2021/12/18 17:55:55;;;;;;;7.30;2.50;;;21.70;54.10;;;;;;214296;1312;22595;-52
2021/12/18 18:01:02;;;;;;;6.90;2.70;;;21.90;53.40;;;;;;214253;1309;22758;-52
2021/12/18 18:06:06;;;;;;;4.60;2.50;;;22.10;52.90;;;;;;214131;1312;22577;-57
2021/12/18 18:11:27;;;;;;;4.10;2.40;;;22.10;52.60;;;;;;214007;1309;22620;-51
2021/12/18 18:16:35;;;;;;;4.30;2.30;;;22.10;52.60;;;;;;214298;1312;25358;-51
2021/12/18 18:22:01;;;;;;;4.90;2.40;;;22.00;52.70;;;;;;214153;1312;24283;-52
2021/12/18 18:27:14;;;;;;;11.50;2.50;;;22.20;52.30;;;;;;214070;1312;22643;-56
2021/12/18 18:32:48;;;;;;;3.70;2.10;;;22.20;52.60;;;;;;214228;1312;24315;-51
2021/12/18 18:38:53;;;;;;;;;;;;;;;;;;;;;
2021/12/18 18:44:17;;;;;;;11.90;3.10;;;22.20;52.00;;;;;;214173;1311;22694;-51
2021/12/18 18:49:28;;;;;;;6.40;3.40;;;22.20;52.10;;;;;;214288;1312;24372;-49
2021/12/18 18:54:54;;;;;;;10.10;4.10;;;22.20;52.50;;;;;;214172;1312;24244;-51
2021/12/18 19:00:19;;;;;;;7.10;3.40;;;22.30;52.40;;;;;;214206;1309;23088;-52
2021/12/18 19:05:35;;;;;;;6.60;3.40;;;22.20;52.60;;;;;;214269;1309;22580;-51
2021/12/18 19:11:01;;;;;;;6.90;2.80;;;22.30;52.50;;;;;;214056;1315;24246;-55
2021/12/18 19:16:14;;;;;;;8.40;2.90;;;22.20;52.50;;;;;;214434;1314;22581;-51
2021/12/18 19:21:25;;;;;;;4.60;2.70;;;22.40;52.30;;;;;;214341;1309;22792;-51
2021/12/18 19:26:59;;;;;;;6.10;3.10;;;22.40;52.00;;;;;;214402;1309;22647;-52
2021/12/18 19:32:06;;;;;;;6.50;2.70;;;22.50;52.40;;;;;;214103;1309;22768;-51
2021/12/18 19:37:09;;;;;;;9.60;3.10;;;22.70;52.30;;;;;;214159;1309;22931;-52
2021/12/18 19:42:13;;;;;;;9.20;3.10;;;23.00;51.40;;;;;;214068;1309;22674;-53
2021/12/18 19:47:19;;;;;;;16.40;3.10;;;23.10;51.60;;;;;;213875;1309;22641;-55
2021/12/18 19:52:22;;;;;;;6.90;2.90;;;23.00;51.90;;;;;;213933;1309;22597;-51
2021/12/18 19:57:27;;;;;;;7.00;2.60;;;23.00;52.20;;;;;;214040;1309;22812;-51
2021/12/18 20:02:45;;;;;;;10.30;2.80;;;23.00;52.40;;;;;;214262;1316;25774;-54
2021/12/18 20:13:43;;;;;;;8.10;2.50;;;22.90;52.60;;;;;;214168;1309;25344;-54
2021/12/18 20:19:16;;;;;;;7.60;3.00;;;22.70;52.70;;;;;;213754;1309;22573;-54
2021/12/18 20:24:32;;;;;;;5.00;2.50;;;22.90;53.00;;;;;;214007;1309;26591;-55
2021/12/18 20:29:36;;;;;;;8.50;2.30;;;22.80;53.70;;;;;;213445;1312;22577;-55
2021/12/18 20:34:49;;;;;;;5.60;2.40;;;22.80;53.70;;;;;;214190;1312;23072;-55
2021/12/18 20:39:54;;;;;;;6.40;2.30;;;22.70;54.10;;;;;;214363;1312;22661;-52
2021/12/18 20:45:01;;;;;;;14.50;2.60;;;22.70;54.30;;;;;;213725;1312;22586;-53
2021/12/18 20:50:09;;;;;;;5.70;2.30;;;22.70;55.90;;;;;;214139;1312;22958;-53
2021/12/18 20:55:22;;;;;;;7.50;2.80;;;22.80;55.40;;;;;;214024;1312;24336;-51
2021/12/18 21:00:35;;;;;;;18.40;2.90;;;22.80;54.90;;;;;;214014;1316;25236;-53
2021/12/18 21:05:39;;;;;;;8.20;2.70;;;22.90;55.00;;;;;;213823;1311;22672;-54
2021/12/18 21:10:47;;;;;;;10.10;2.70;;;22.80;56.30;;;;;;213486;1312;25279;-54
2021/12/18 21:15:56;;;;;;;5.80;2.40;;;22.70;56.20;;;;;;213895;1312;22573;-53
2021/12/18 21:21:00;;;;;;;11.30;2.50;;;22.70;56.60;;;;;;214006;1311;22584;-52
2021/12/18 21:26:05;;;;;;;4.90;2.20;;;22.70;56.00;;;;;;214325;1312;23946;-52
2021/12/18 21:31:12;;;;;;;11.80;2.50;;;22.70;56.20;;;;;;214392;1309;22641;-52
2021/12/18 21:36:38;;;;;;;8.30;2.50;;;22.80;55.60;;;;;;213740;1315;22631;-51
2021/12/18 21:42:06;;;;;;;5.00;2.20;;;22.70;55.60;;;;;;213792;1312;24420;-54
2021/12/18 21:47:15;;;;;;;6.30;2.10;;;22.60;55.60;;;;;;214001;1312;25306;-52
2021/12/18 21:52:20;;;;;;;6.20;2.80;;;22.70;55.40;;;;;;214002;1309;22591;-54
2021/12/18 21:57:24;;;;;;;9.60;2.70;;;22.70;55.00;;;;;;213801;1312;26546;-52
2021/12/18 22:02:38;;;;;;;7.30;2.50;;;22.80;54.50;;;;;;213868;1310;22998;-52
2021/12/18 22:07:45;;;;;;;6.10;2.40;;;22.90;54.60;;;;;;214167;1309;25672;-50
2021/12/18 22:12:49;;;;;;;7.50;2.70;;;22.90;54.50;;;;;;214030;1312;25579;-49
2021/12/18 22:17:54;;;;;;;7.50;2.10;;;23.00;54.80;;;;;;214403;1309;23040;-51
2021/12/18 22:23:02;;;;;;;8.30;2.60;;;23.00;54.80;;;;;;214291;1309;25374;-50
2021/12/18 22:28:12;;;;;;;6.80;2.00;;;23.00;54.80;;;;;;214255;1312;22691;-50
2021/12/18 22:33:19;;;;;;;4.80;2.20;;;23.00;56.10;;;;;;214374;1309;22562;-54
2021/12/18 22:38:26;;;;;;;4.30;2.10;;;23.10;55.40;;;;;;214280;1309;22577;-54
2021/12/18 22:43:31;;;;;;;5.10;2.60;;;22.90;56.60;;;;;;214264;1309;24313;-51
2021/12/18 22:48:41;;;;;;;7.20;2.30;;;23.00;56.30;;;;;;214180;1309;26773;-53
2021/12/18 22:53:46;;;;;;;5.40;2.00;;;23.00;56.50;;;;;;214197;1309;26562;-51
2021/12/18 22:58:50;;;;;;;6.80;2.10;;;23.00;56.30;;;;;;214139;1309;25605;-55
2021/12/18 23:03:55;;;;;;;5.70;2.40;;;23.10;56.40;;;;;;213891;1309;22588;-53
2021/12/18 23:09:04;;;;;;;5.40;2.40;;;23.00;56.30;;;;;;213258;1315;24243;-51
2021/12/18 23:14:27;;;;;;;5.80;2.30;;;23.00;56.70;;;;;;213535;1311;24402;-52
2021/12/18 23:19:54;;;;;;;3.90;2.00;;;22.90;56.30;;;;;;213588;1311;27030;-50
2021/12/18 23:25:06;;;;;;;3.30;1.70;;;22.90;56.40;;;;;;214308;1309;23355;-52
2021/12/18 23:30:31;;;;;;;3.80;1.70;;;22.90;56.20;;;;;;213240;1313;22613;-53
2021/12/18 23:35:38;;;;;;;3.40;1.80;;;22.90;56.20;;;;;;213623;1311;25401;-54
2021/12/18 23:40:42;;;;;;;4.00;1.60;;;22.90;56.70;;;;;;213591;1316;24340;-52
2021/12/18 23:51:08;;;;;;;2.90;1.60;;;22.80;56.80;;;;;;214123;1309;22571;-51
2021/12/18 23:56:12;;;;;;;4.40;1.80;;;22.80;56.70;;;;;;213945;1309;22561;-53
